Terminal Aerodrome Forecast
Issued by NWS

Home | Current Version | Previous Version | Text Only | Print | Product List | Glossary On
Versions: 1 2 3 4 5 6 7 8 9 10 11 12 13 14 15 16 17 18 19 20 21
000
FTUS41 KBTV 231944 AAA
TAFMPV
TAF AMD
KMPV 231944Z 2320/2418 36009KT 6SM -RA SCT006 OVC012
      TEMPO 2320/2324 5SM -RA BR BKN006 OVC012
     FM240000 34009KT 3SM -RA BR OVC006
     FM241600 33009KT 5SM -RA BR OVC009=

USA.gov is the U.S. government's official web portal to all federal, state and local government web resources and services.